Time;durP1;ratioP1;P1;durP2;ratioP2;P2;SDS_P1;SDS_P2;PMS_P1;PMS_P2;Temp;Humidity;BMP_temperature;BMP_pressure;BME280_temperature;BME280_humidity;BME280_pressure;Samples;Min_cycle;Max_cycle;Signal;HPM_P1;HPM_P2
2022/12/18 00:02:09;;;;;;;43.78;18.42;;;;;;;;;;5049940;28;20521;-54
2022/12/18 00:04:35;;;;;;;45.60;18.92;;;;;;;;;;5050811;28;20029;-52
2022/12/18 00:07:00;;;;;;;50.03;20.02;;;;;;;;;;5050817;28;20044;-59
2022/12/18 00:09:25;;;;;;;43.60;18.75;;;;;;;;;;5048339;28;20032;-53
2022/12/18 00:11:51;;;;;;;48.47;19.40;;;;;;;;;;5050891;28;20096;-54
2022/12/18 00:14:16;;;;;;;46.30;18.52;;;;;;;;;;5050030;28;20102;-54
2022/12/18 00:16:46;;;;;;;46.13;18.58;;;;;;;;;;5050728;28;20035;-52
2022/12/18 00:19:12;;;;;;;45.33;19.15;;;;;;;;;;5053989;28;20369;-53
2022/12/18 00:21:37;;;;;;;53.58;20.95;;;;;;;;;;5052741;28;20025;-56
2022/12/18 00:24:03;;;;;;;50.03;20.40;;;;;;;;;;5049601;28;20051;-59
2022/12/18 00:26:32;;;;;;;46.20;19.55;;;;;;;;;;5052202;28;20528;-52
2022/12/18 00:28:59;;;;;;;42.95;18.35;;;;;;;;;;5052384;28;20021;-57
2022/12/18 00:31:25;;;;;;;45.22;19.23;;;;;;;;;;5037329;28;20563;-55
2022/12/18 00:33:51;;;;;;;49.55;19.05;;;;;;;;;;5051473;28;20037;-55
2022/12/18 00:36:19;;;;;;;44.63;19.15;;;;;;;;;;5051437;28;20036;-53
2022/12/18 00:38:45;;;;;;;41.53;17.70;;;;;;;;;;5047799;28;20362;-50
2022/12/18 00:41:12;;;;;;;42.45;17.67;;;;;;;;;;5054512;28;20035;-51
2022/12/18 00:43:38;;;;;;;46.67;19.25;;;;;;;;;;5053633;28;20120;-56
2022/12/18 00:46:04;;;;;;;50.63;19.42;;;;;;;;;;5049687;28;20824;-57
2022/12/18 00:48:29;;;;;;;49.65;19.15;;;;;;;;;;5043595;28;20025;-55
2022/12/18 00:50:55;;;;;;;46.08;18.70;;;;;;;;;;5035521;28;20037;-53
2022/12/18 00:53:20;;;;;;;39.15;17.30;;;;;;;;;;5050100;28;20020;-55
2022/12/18 00:55:49;;;;;;;39.58;16.88;;;;;;;;;;5050309;28;20128;-54
2022/12/18 00:58:16;;;;;;;42.95;16.98;;;;;;;;;;5050168;28;20039;-52
2022/12/18 01:00:42;;;;;;;38.08;17.95;;;;;;;;;;5051541;28;20473;-54
2022/12/18 01:03:07;;;;;;;41.17;17.23;;;;;;;;;;5042039;28;20041;-58
2022/12/18 01:05:33;;;;;;;43.83;17.73;;;;;;;;;;5052611;28;20484;-54
2022/12/18 01:07:59;;;;;;;39.53;16.70;;;;;;;;;;5053583;28;20393;-55
2022/12/18 01:10:25;;;;;;;33.50;16.17;;;;;;;;;;5053042;28;20286;-55
2022/12/18 01:12:51;;;;;;;36.85;16.05;;;;;;;;;;5053812;28;20428;-53
2022/12/18 01:15:17;;;;;;;44.80;18.50;;;;;;;;;;5052524;28;20044;-54
2022/12/18 01:17:42;;;;;;;38.75;17.90;;;;;;;;;;5052601;28;20079;-55
2022/12/18 01:20:10;;;;;;;44.47;18.77;;;;;;;;;;5051535;28;20025;-58
2022/12/18 01:22:36;;;;;;;39.97;18.92;;;;;;;;;;5053557;28;20033;-53
2022/12/18 01:25:02;;;;;;;48.33;18.50;;;;;;;;;;5053639;28;20043;-51
2022/12/18 01:27:27;;;;;;;46.78;19.88;;;;;;;;;;5052590;28;20024;-53
2022/12/18 01:29:52;;;;;;;51.75;20.65;;;;;;;;;;5052415;28;20037;-51
2022/12/18 01:32:18;;;;;;;44.55;18.90;;;;;;;;;;5051142;28;20025;-56
2022/12/18 01:34:44;;;;;;;44.55;19.20;;;;;;;;;;5052587;28;20476;-56
2022/12/18 01:37:10;;;;;;;44.88;17.52;;;;;;;;;;5067671;28;20033;-60
2022/12/18 01:39:36;;;;;;;50.40;20.15;;;;;;;;;;5052763;28;20036;-56
2022/12/18 01:42:11;;;;;;;46.50;19.48;;;;;;;;;;5057368;28;20016;-56
2022/12/18 01:44:51;;;;;;;42.65;17.13;;;;;;;;;;5066022;28;20051;-53
2022/12/18 01:47:23;;;;;;;43.67;17.85;;;;;;;;;;5071283;28;20084;-52
2022/12/18 01:49:48;;;;;;;45.55;18.38;;;;;;;;;;5057709;28;20111;-56
2022/12/18 01:52:15;;;;;;;45.55;18.88;;;;;;;;;;5054037;28;20128;-51
2022/12/18 01:54:40;;;;;;;44.88;17.95;;;;;;;;;;5032735;28;20017;-54
2022/12/18 01:57:06;;;;;;;47.92;18.70;;;;;;;;;;5051691;28;20052;-55
2022/12/18 01:59:33;;;;;;;46.33;17.23;;;;;;;;;;5050012;28;20097;-55
2022/12/18 02:02:00;;;;;;;41.38;17.42;;;;;;;;;;5054548;28;20021;-54
2022/12/18 02:04:27;;;;;;;44.67;18.13;;;;;;;;;;5049639;28;20030;-53
2022/12/18 02:07:26;;;;;;;43.08;17.52;;;;;;;;;;5056624;28;20026;-55
2022/12/18 02:10:15;;;;;;;37.72;16.75;;;;;;;;;;5043287;28;20478;-52
2022/12/18 02:13:21;;;;;;;40.50;16.20;;;;;;;;;;5038324;28;20025;-54
2022/12/18 02:16:14;;;;;;;41.72;16.27;;;;;;;;;;5051983;28;20063;-55
2022/12/18 02:18:45;;;;;;;41.88;18.25;;;;;;;;;;5052418;28;20040;-53
2022/12/18 02:21:13;;;;;;;;;;;;;;;;;;5052262;28;20035;-60
2022/12/18 02:23:56;;;;;;;32.83;14.45;;;;;;;;;;5052202;28;19909;-56
2022/12/18 02:26:24;;;;;;;31.45;13.80;;;;;;;;;;5050923;28;20542;-53
2022/12/18 02:28:58;;;;;;;34.88;15.45;;;;;;;;;;5052020;28;20191;-52
2022/12/18 02:31:28;;;;;;;36.33;16.25;;;;;;;;;;5051182;28;20112;-55
2022/12/18 02:33:56;;;;;;;35.75;15.73;;;;;;;;;;5050892;28;20033;-55
2022/12/18 02:36:23;;;;;;;45.95;16.45;;;;;;;;;;5051463;28;20103;-55
2022/12/18 02:38:50;;;;;;;39.10;16.33;;;;;;;;;;5041691;28;20025;-53
2022/12/18 02:41:17;;;;;;;37.40;15.10;;;;;;;;;;5031177;28;20100;-55
2022/12/18 02:43:53;;;;;;;33.25;14.68;;;;;;;;;;5044700;28;20049;-53
2022/12/18 02:46:35;;;;;;;31.95;14.02;;;;;;;;;;5051176;28;20049;-57
2022/12/18 02:49:13;;;;;;;34.92;15.68;;;;;;;;;;5051918;28;20078;-52
2022/12/18 02:51:53;;;;;;;40.53;15.02;;;;;;;;;;5051673;28;20494;-54
2022/12/18 02:54:24;;;;;;;38.30;15.45;;;;;;;;;;5051018;28;20033;-53
2022/12/18 02:56:57;;;;;;;35.70;15.18;;;;;;;;;;5050083;28;20045;-53
2022/12/18 02:59:38;;;;;;;34.50;14.52;;;;;;;;;;5050657;28;20025;-52
2022/12/18 03:02:27;;;;;;;33.33;14.38;;;;;;;;;;5051744;28;20033;-57
2022/12/18 03:05:23;;;;;;;36.92;15.80;;;;;;;;;;5047345;28;20069;-54
2022/12/18 03:07:58;;;;;;;30.63;13.95;;;;;;;;;;5043099;28;20164;-54
2022/12/18 03:10:42;;;;;;;35.65;15.02;;;;;;;;;;5050798;28;20036;-53
2022/12/18 03:13:13;;;;;;;29.02;13.77;;;;;;;;;;5050145;28;20028;-54
2022/12/18 03:15:45;;;;;;;31.80;14.27;;;;;;;;;;5049664;28;20017;-50
2022/12/18 03:18:25;;;;;;;32.40;14.23;;;;;;;;;;5051060;28;20029;-54
2022/12/18 03:20:53;;;;;;;32.17;13.50;;;;;;;;;;5066020;28;20032;-53
2022/12/18 03:23:22;;;;;;;28.00;13.25;;;;;;;;;;5058029;28;20103;-53
2022/12/18 03:25:50;;;;;;;30.83;13.68;;;;;;;;;;5051404;28;20108;-54
2022/12/18 03:28:21;;;;;;;29.95;12.95;;;;;;;;;;5050572;28;20082;-59
2022/12/18 03:30:56;;;;;;;37.75;16.27;;;;;;;;;;5048700;28;20024;-55
2022/12/18 03:33:27;;;;;;;32.85;14.40;;;;;;;;;;5035279;28;20474;-54
2022/12/18 03:35:52;;;;;;;29.80;14.00;;;;;;;;;;5048776;28;20051;-53
2022/12/18 03:38:18;;;;;;;34.08;15.50;;;;;;;;;;5045484;28;20474;-53
2022/12/18 03:41:16;;;;;;;32.47;15.02;;;;;;;;;;5050878;28;20024;-57
2022/12/18 03:43:52;;;;;;;31.90;14.23;;;;;;;;;;5049889;28;20033;-55
2022/12/18 03:46:32;;;;;;;31.17;13.75;;;;;;;;;;5050168;28;20378;-54
2022/12/18 03:49:18;;;;;;;33.95;14.80;;;;;;;;;;5045548;28;20033;-53
2022/12/18 03:51:50;;;;;;;29.83;13.77;;;;;;;;;;5040719;28;20033;-54
2022/12/18 03:54:17;;;;;;;33.28;14.30;;;;;;;;;;5049928;28;20055;-61
2022/12/18 03:56:48;;;;;;;34.20;14.70;;;;;;;;;;5052977;28;20037;-53
2022/12/18 03:59:14;;;;;;;;;;;;;;;;;;5053433;28;20059;-59
2022/12/18 04:01:46;;;;;;;33.97;12.77;;;;;;;;;;5050787;28;19931;-53
2022/12/18 04:04:13;;;;;;;34.80;14.48;;;;;;;;;;5052638;28;20473;-51
2022/12/18 04:06:41;;;;;;;33.70;15.68;;;;;;;;;;5049975;28;20029;-54
2022/12/18 04:09:07;;;;;;;29.02;13.25;;;;;;;;;;5050273;28;20032;-53
2022/12/18 04:11:33;;;;;;;34.42;15.23;;;;;;;;;;5052641;28;20405;-55
2022/12/18 04:13:58;;;;;;;34.55;14.38;;;;;;;;;;5052335;28;20065;-53
2022/12/18 04:16:25;;;;;;;30.17;13.75;;;;;;;;;;5067297;28;20102;-52
2022/12/18 04:18:51;;;;;;;30.88;14.27;;;;;;;;;;5048975;28;20381;-53
2022/12/18 04:21:16;;;;;;;33.30;13.82;;;;;;;;;;5062134;28;20032;-58
2022/12/18 04:23:42;;;;;;;32.15;14.70;;;;;;;;;;5069468;28;20052;-56
2022/12/18 04:26:07;;;;;;;29.65;13.55;;;;;;;;;;5054222;28;20033;-52
2022/12/18 04:28:33;;;;;;;32.85;13.68;;;;;;;;;;5033424;28;20095;-57
2022/12/18 04:30:58;;;;;;;34.33;13.43;;;;;;;;;;5051724;28;20025;-55
2022/12/18 04:33:23;;;;;;;31.40;14.52;;;;;;;;;;5052097;28;20110;-57
2022/12/18 04:35:49;;;;;;;30.52;11.98;;;;;;;;;;5053394;28;20029;-55
2022/12/18 04:38:14;;;;;;;32.08;13.48;;;;;;;;;;5048310;28;20024;-53
2022/12/18 04:40:40;;;;;;;29.75;12.85;;;;;;;;;;5049150;28;20574;-54
2022/12/18 04:43:05;;;;;;;29.33;13.13;;;;;;;;;;5050030;28;20033;-53
2022/12/18 04:45:32;;;;;;;29.10;12.98;;;;;;;;;;5051496;28;20080;-54
2022/12/18 04:47:58;;;;;;;34.13;13.27;;;;;;;;;;5050408;28;20132;-56
2022/12/18 04:50:24;;;;;;;26.77;12.63;;;;;;;;;;5047460;28;20032;-53
2022/12/18 04:52:49;;;;;;;27.75;12.70;;;;;;;;;;5049763;28;20382;-52
2022/12/18 04:55:15;;;;;;;26.65;12.30;;;;;;;;;;5051649;28;20448;-52
2022/12/18 04:57:42;;;;;;;32.30;13.27;;;;;;;;;;5037104;28;20037;-54
2022/12/18 05:00:09;;;;;;;28.23;13.43;;;;;;;;;;5052360;28;20060;-51
2022/12/18 05:02:34;;;;;;;28.38;12.45;;;;;;;;;;5064286;28;20466;-53
2022/12/18 05:04:59;;;;;;;27.88;12.23;;;;;;;;;;5049007;28;20036;-53
2022/12/18 05:07:25;;;;;;;30.27;12.82;;;;;;;;;;5049912;28;20083;-54
2022/12/18 05:09:50;;;;;;;29.90;13.27;;;;;;;;;;5049209;28;20079;-54
2022/12/18 05:12:15;;;;;;;27.88;13.30;;;;;;;;;;5049561;28;20037;-54
2022/12/18 05:14:41;;;;;;;26.08;11.73;;;;;;;;;;5050268;28;20033;-54
2022/12/18 05:17:07;;;;;;;25.45;11.82;;;;;;;;;;5050988;28;20032;-55
2022/12/18 05:19:32;;;;;;;25.52;11.98;;;;;;;;;;5051595;28;20036;-56
2022/12/18 05:21:58;;;;;;;28.83;13.10;;;;;;;;;;5051310;28;20048;-53
2022/12/18 05:24:23;;;;;;;25.98;12.02;;;;;;;;;;5052655;28;20118;-57
2022/12/18 05:26:49;;;;;;;29.20;11.48;;;;;;;;;;5052778;28;20040;-54
2022/12/18 05:29:14;;;;;;;27.35;11.55;;;;;;;;;;5051211;28;20074;-54
2022/12/18 05:31:40;;;;;;;23.75;10.95;;;;;;;;;;5049746;28;20217;-55
2022/12/18 05:34:06;;;;;;;23.52;10.35;;;;;;;;;;5051341;28;20029;-53
2022/12/18 05:36:31;;;;;;;22.98;11.18;;;;;;;;;;5051016;28;20033;-55
2022/12/18 05:38:57;;;;;;;22.80;10.40;;;;;;;;;;5048447;28;20025;-57
2022/12/18 05:41:22;;;;;;;26.05;10.95;;;;;;;;;;5051429;28;20481;-58
2022/12/18 05:43:47;;;;;;;25.35;10.90;;;;;;;;;;5051002;28;20082;-52
2022/12/18 05:46:15;;;;;;;22.02;10.15;;;;;;;;;;5051060;28;20082;-55
2022/12/18 05:48:42;;;;;;;24.55;10.30;;;;;;;;;;5048763;28;20056;-52
2022/12/18 05:51:10;;;;;;;19.92;9.40;;;;;;;;;;5051631;28;20033;-56
2022/12/18 05:53:37;;;;;;;21.52;9.98;;;;;;;;;;5049713;28;20424;-54
2022/12/18 05:56:05;;;;;;;22.00;10.90;;;;;;;;;;5048906;28;20073;-57
2022/12/18 05:58:31;;;;;;;23.30;10.23;;;;;;;;;;5049626;28;20041;-54
2022/12/18 06:00:57;;;;;;;22.45;10.52;;;;;;;;;;5049771;28;20036;-55
2022/12/18 06:03:23;;;;;;;22.48;9.75;;;;;;;;;;5049738;28;20082;-58
2022/12/18 06:05:48;;;;;;;22.08;10.18;;;;;;;;;;5051772;28;20397;-56
2022/12/18 06:08:14;;;;;;;23.27;10.60;;;;;;;;;;5049263;28;20111;-56
2022/12/18 06:10:40;;;;;;;24.17;10.32;;;;;;;;;;5048282;28;20033;-56
2022/12/18 06:13:06;;;;;;;24.83;9.95;;;;;;;;;;5046285;28;20428;-54
2022/12/18 06:15:32;;;;;;;33.45;13.52;;;;;;;;;;5047738;28;20037;-56
2022/12/18 06:17:58;;;;;;;23.30;10.20;;;;;;;;;;5050617;28;20075;-56
2022/12/18 06:20:23;;;;;;;26.45;10.65;;;;;;;;;;5044356;28;20374;-58
2022/12/18 06:22:49;;;;;;;26.13;11.55;;;;;;;;;;5057043;28;20044;-55
2022/12/18 06:25:14;;;;;;;19.42;9.50;;;;;;;;;;5049239;28;20032;-56
2022/12/18 06:27:40;;;;;;;18.80;9.80;;;;;;;;;;5050252;28;20464;-56
2022/12/18 06:30:06;;;;;;;24.08;10.13;;;;;;;;;;5050810;28;20488;-56
2022/12/18 06:32:31;;;;;;;23.85;9.98;;;;;;;;;;5049977;28;20033;-56
2022/12/18 06:34:57;;;;;;;21.38;10.57;;;;;;;;;;5038440;28;20039;-55
2022/12/18 06:37:25;;;;;;;24.75;11.18;;;;;;;;;;5045886;28;20104;-56
2022/12/18 06:39:51;;;;;;;24.20;10.05;;;;;;;;;;5049093;28;20025;-54
2022/12/18 06:42:17;;;;;;;20.85;9.82;;;;;;;;;;5050958;28;20032;-54
2022/12/18 06:44:42;;;;;;;22.52;9.98;;;;;;;;;;5044252;28;20045;-56
2022/12/18 06:47:07;;;;;;;26.10;9.93;;;;;;;;;;5045510;28;20458;-55
2022/12/18 06:49:33;;;;;;;21.55;9.82;;;;;;;;;;5047365;28;20060;-56
2022/12/18 06:51:58;;;;;;;22.98;9.68;;;;;;;;;;5049074;28;20040;-55
2022/12/18 06:54:23;;;;;;;24.60;9.88;;;;;;;;;;5048736;28;20040;-57
2022/12/18 06:56:49;;;;;;;28.13;10.18;;;;;;;;;;5049255;28;20112;-56
2022/12/18 06:59:14;;;;;;;23.80;10.23;;;;;;;;;;5049304;28;20031;-51
2022/12/18 07:01:40;;;;;;;24.45;10.95;;;;;;;;;;5047814;28;20026;-52
2022/12/18 07:04:06;;;;;;;26.08;12.15;;;;;;;;;;5050319;28;20444;-58
2022/12/18 07:06:32;;;;;;;24.92;12.55;;;;;;;;;;5047602;28;20068;-56
2022/12/18 07:08:57;;;;;;;27.67;12.40;;;;;;;;;;5050671;28;20409;-55
2022/12/18 07:11:23;;;;;;;29.42;12.32;;;;;;;;;;5063826;28;20043;-54
2022/12/18 07:13:48;;;;;;;26.42;11.88;;;;;;;;;;5050526;28;20025;-59
2022/12/18 07:16:17;;;;;;;26.15;10.77;;;;;;;;;;5043783;28;20029;-56
2022/12/18 07:18:43;;;;;;;22.42;10.40;;;;;;;;;;5034743;28;20025;-56
2022/12/18 07:21:11;;;;;;;23.55;10.52;;;;;;;;;;5046377;28;20044;-57
2022/12/18 07:23:37;;;;;;;25.98;10.15;;;;;;;;;;5057413;28;20440;-55
2022/12/18 07:26:04;;;;;;;25.98;11.13;;;;;;;;;;5047909;28;20071;-55
2022/12/18 07:28:30;;;;;;;22.77;10.30;;;;;;;;;;5050446;28;20044;-57
2022/12/18 07:30:56;;;;;;;22.38;10.63;;;;;;;;;;5048658;28;20074;-53
2022/12/18 07:33:21;;;;;;;22.95;10.32;;;;;;;;;;5045254;28;20041;-55
2022/12/18 07:35:46;;;;;;;20.98;9.45;;;;;;;;;;5032434;28;20043;-51
2022/12/18 07:38:12;;;;;;;22.88;9.70;;;;;;;;;;5044483;28;20405;-55
2022/12/18 07:40:37;;;;;;;20.30;10.25;;;;;;;;;;5032845;28;20079;-52
2022/12/18 07:43:03;;;;;;;19.98;9.80;;;;;;;;;;5050169;28;20033;-52
2022/12/18 07:45:28;;;;;;;18.70;9.23;;;;;;;;;;5051120;28;20074;-58
2022/12/18 07:47:53;;;;;;;22.75;9.80;;;;;;;;;;5050659;28;20082;-53
2022/12/18 07:50:19;;;;;;;21.75;10.32;;;;;;;;;;5016367;28;20030;-53
2022/12/18 07:52:44;;;;;;;21.42;10.10;;;;;;;;;;5030575;28;20120;-52
2022/12/18 07:55:10;;;;;;;24.58;10.27;;;;;;;;;;5042286;28;20036;-54
2022/12/18 07:57:35;;;;;;;20.48;9.52;;;;;;;;;;5065392;28;20083;-51
2022/12/18 08:00:01;;;;;;;23.27;9.65;;;;;;;;;;5071108;28;20422;-52
2022/12/18 08:02:26;;;;;;;20.88;9.23;;;;;;;;;;5071190;28;20523;-52
2022/12/18 08:04:51;;;;;;;21.38;9.57;;;;;;;;;;5070356;28;20040;-53
2022/12/18 08:07:17;;;;;;;20.50;9.80;;;;;;;;;;5052555;28;20108;-54
2022/12/18 08:09:42;;;;;;;20.33;8.68;;;;;;;;;;5032018;28;20153;-56
2022/12/18 08:12:08;;;;;;;21.23;8.82;;;;;;;;;;5041559;28;20033;-52
2022/12/18 08:14:33;;;;;;;22.88;9.88;;;;;;;;;;5050199;28;20033;-57
2022/12/18 08:16:58;;;;;;;20.83;9.13;;;;;;;;;;5051108;28;20037;-54
2022/12/18 08:19:24;;;;;;;19.70;9.35;;;;;;;;;;5049454;28;20044;-54
2022/12/18 08:21:49;;;;;;;17.38;9.00;;;;;;;;;;5048537;28;20608;-52
2022/12/18 08:24:15;;;;;;;19.80;8.60;;;;;;;;;;5050225;28;20116;-53
2022/12/18 08:26:40;;;;;;;18.02;8.57;;;;;;;;;;5050152;28;20404;-52
2022/12/18 08:29:05;;;;;;;18.17;8.27;;;;;;;;;;5049267;28;20060;-55
2022/12/18 08:31:31;;;;;;;21.10;9.15;;;;;;;;;;5048946;28;20382;-59
2022/12/18 08:33:57;;;;;;;20.60;9.55;;;;;;;;;;5049082;28;20059;-52
2022/12/18 08:36:23;;;;;;;22.15;9.35;;;;;;;;;;5048858;28;20409;-52
2022/12/18 08:38:52;;;;;;;23.02;9.18;;;;;;;;;;5049736;28;20047;-54
2022/12/18 08:41:19;;;;;;;16.88;8.95;;;;;;;;;;5052888;28;20029;-55
2022/12/18 08:46:34;;;;;;;22.20;9.85;;;;;;;;;;5053208;28;20036;-53
2022/12/18 08:48:59;;;;;;;21.90;9.63;;;;;;;;;;5053820;28;20031;-54
2022/12/18 08:51:24;;;;;;;20.90;9.52;;;;;;;;;;5061158;28;20380;-56
2022/12/18 08:53:50;;;;;;;18.98;9.07;;;;;;;;;;5073233;28;20032;-55
2022/12/18 08:56:16;;;;;;;19.92;9.57;;;;;;;;;;5071226;28;20040;-56
2022/12/18 08:58:42;;;;;;;18.67;9.02;;;;;;;;;;5053069;28;20038;-56
2022/12/18 09:01:10;;;;;;;20.35;9.43;;;;;;;;;;5053093;28;20418;-53
2022/12/18 09:03:36;;;;;;;19.23;9.65;;;;;;;;;;5051200;28;20025;-57
2022/12/18 09:06:02;;;;;;;22.13;9.50;;;;;;;;;;5053484;28;20025;-57
2022/12/18 09:08:28;;;;;;;20.17;9.43;;;;;;;;;;5053054;28;20382;-56
2022/12/18 09:10:54;;;;;;;17.98;8.98;;;;;;;;;;5051009;28;20036;-58
2022/12/18 09:13:20;;;;;;;19.27;9.02;;;;;;;;;;5050973;28;20036;-56
2022/12/18 09:15:50;;;;;;;18.60;9.20;;;;;;;;;;5057786;28;20070;-58
2022/12/18 09:18:17;;;;;;;18.00;8.90;;;;;;;;;;5042691;28;20397;-56
2022/12/18 09:20:43;;;;;;;19.15;9.05;;;;;;;;;;5052703;28;20033;-56
2022/12/18 09:23:09;;;;;;;19.75;8.52;;;;;;;;;;5039394;28;20025;-55
2022/12/18 09:25:35;;;;;;;19.30;9.13;;;;;;;;;;5033117;28;20037;-61
2022/12/18 09:28:06;;;;;;;21.40;9.52;;;;;;;;;;5036226;28;20065;-57
2022/12/18 09:30:33;;;;;;;18.38;8.52;;;;;;;;;;5053454;28;20035;-55
2022/12/18 09:33:00;;;;;;;17.10;8.73;;;;;;;;;;5053248;28;20037;-56
2022/12/18 09:35:27;;;;;;;17.00;8.20;;;;;;;;;;5058540;28;20033;-57
2022/12/18 09:37:53;;;;;;;17.58;8.07;;;;;;;;;;5049347;28;20037;-60
2022/12/18 09:40:22;;;;;;;19.60;8.48;;;;;;;;;;5053102;28;20036;-62
2022/12/18 09:42:54;;;;;;;15.80;8.18;;;;;;;;;;5050226;28;20599;-55
2022/12/18 09:45:20;;;;;;;16.80;8.50;;;;;;;;;;5053142;28;20496;-55
2022/12/18 09:47:48;;;;;;;17.08;8.55;;;;;;;;;;5051311;28;20032;-58
2022/12/18 09:50:36;;;;;;;18.30;9.45;;;;;;;;;;5049763;28;20044;-56
2022/12/18 09:53:06;;;;;;;18.10;9.38;;;;;;;;;;5052856;28;20025;-55
2022/12/18 09:55:36;;;;;;;21.52;9.43;;;;;;;;;;5052446;28;20037;-58
2022/12/18 09:58:30;;;;;;;16.30;9.10;;;;;;;;;;5050510;28;20506;-57
2022/12/18 10:00:56;;;;;;;18.15;9.35;;;;;;;;;;5047831;28;20143;-57
2022/12/18 10:03:22;;;;;;;21.98;9.75;;;;;;;;;;5053024;28;20115;-58
2022/12/18 10:05:53;;;;;;;16.77;8.55;;;;;;;;;;5050517;28;20036;-55
2022/12/18 10:08:23;;;;;;;;;;;;;;;;;;5052961;28;20033;-56
2022/12/18 10:10:52;;;;;;;17.95;9.00;;;;;;;;;;5050229;28;19916;-57
2022/12/18 10:13:33;;;;;;;18.42;9.68;;;;;;;;;;5052439;28;20033;-55
2022/12/18 10:16:35;;;;;;;20.90;9.75;;;;;;;;;;5049884;28;20043;-56
2022/12/18 10:19:19;;;;;;;17.25;9.52;;;;;;;;;;5050526;28;20044;-57
2022/12/18 10:21:53;;;;;;;18.27;10.20;;;;;;;;;;5051644;28;20033;-56
2022/12/18 10:24:31;;;;;;;18.52;9.82;;;;;;;;;;5051221;28;20103;-56
2022/12/18 10:27:08;;;;;;;24.02;9.32;;;;;;;;;;5048679;28;20116;-57
2022/12/18 10:29:34;;;;;;;17.05;9.25;;;;;;;;;;5051387;28;20489;-57
2022/12/18 10:31:59;;;;;;;19.73;10.20;;;;;;;;;;5050132;28;20056;-56
2022/12/18 10:34:24;;;;;;;21.42;9.82;;;;;;;;;;5052298;28;20115;-56
2022/12/18 10:36:50;;;;;;;18.58;9.18;;;;;;;;;;5047182;28;20035;-57
2022/12/18 10:39:24;;;;;;;18.63;9.52;;;;;;;;;;5049793;28;20037;-56
2022/12/18 10:41:50;;;;;;;19.35;9.57;;;;;;;;;;5044945;28;20025;-54
2022/12/18 10:44:18;;;;;;;19.65;9.55;;;;;;;;;;5032375;28;20029;-54
2022/12/18 10:46:50;;;;;;;20.67;10.23;;;;;;;;;;5048660;28;20035;-54
2022/12/18 10:49:26;;;;;;;16.45;8.88;;;;;;;;;;5052188;28;20115;-58
2022/12/18 10:52:05;;;;;;;18.58;9.43;;;;;;;;;;5050443;28;20384;-57
2022/12/18 10:54:32;;;;;;;17.48;8.88;;;;;;;;;;5053103;28;20116;-58
2022/12/18 10:57:25;;;;;;;17.15;8.98;;;;;;;;;;5066489;28;20098;-56
2022/12/18 10:59:54;;;;;;;15.98;8.55;;;;;;;;;;5049812;28;20029;-57
2022/12/18 11:02:37;;;;;;;17.33;8.95;;;;;;;;;;5051799;28;20056;-56
2022/12/18 11:05:05;;;;;;;17.05;8.45;;;;;;;;;;5049920;28;20619;-56
2022/12/18 11:07:50;;;;;;;15.88;8.52;;;;;;;;;;5050628;28;20103;-60
2022/12/18 11:10:20;;;;;;;15.65;8.52;;;;;;;;;;5051784;28;20055;-56
2022/12/18 11:12:45;;;;;;;17.35;8.98;;;;;;;;;;5051317;28;20082;-56
2022/12/18 11:15:21;;;;;;;18.42;8.85;;;;;;;;;;5050619;28;20033;-56
2022/12/18 11:17:49;;;;;;;15.93;8.45;;;;;;;;;;5051005;28;20100;-55
2022/12/18 11:20:41;;;;;;;18.27;8.35;;;;;;;;;;5050298;28;20055;-56
2022/12/18 11:23:11;;;;;;;;;;;;;;;;;;5051455;28;20048;-56
2022/12/18 11:25:38;;;;;;;15.88;8.70;;;;;;;;;;5049807;28;20347;-56
2022/12/18 11:28:24;;;;;;;19.05;9.95;;;;;;;;;;5049774;28;20043;-57
2022/12/18 11:31:16;;;;;;;19.38;9.85;;;;;;;;;;5049741;28;20032;-57
2022/12/18 11:33:46;;;;;;;18.60;9.93;;;;;;;;;;5051050;28;20055;-61
2022/12/18 11:36:14;;;;;;;18.57;9.83;;;;;;;;;;5050541;28;20073;-55
2022/12/18 11:38:42;;;;;;;19.85;10.05;;;;;;;;;;5051245;28;20378;-58
2022/12/18 11:42:08;;;;;;;16.08;8.77;;;;;;;;;;5048746;28;20029;-56
2022/12/18 11:44:11;;;;;;;;;;;;;;;;;;5031426;28;20043;-57
2022/12/18 11:46:46;;;;;;;18.80;9.05;;;;;;;;;;5045774;28;19912;-56
2022/12/18 11:49:35;;;;;;;15.90;8.65;;;;;;;;;;5049903;28;20025;-57
2022/12/18 11:52:23;;;;;;;17.75;8.75;;;;;;;;;;5049313;28;20082;-58
2022/12/18 11:54:55;;;;;;;18.23;9.38;;;;;;;;;;5035780;28;20041;-57
2022/12/18 11:58:05;;;;;;;17.10;8.52;;;;;;;;;;5049706;28;20049;-55
2022/12/18 12:00:34;;;;;;;15.57;8.63;;;;;;;;;;5016477;28;20041;-57
2022/12/18 12:03:18;;;;;;;15.50;8.48;;;;;;;;;;5048522;28;20405;-56
2022/12/18 12:06:04;;;;;;;15.65;9.15;;;;;;;;;;5050994;28;20037;-60
2022/12/18 12:08:39;;;;;;;16.42;7.97;;;;;;;;;;5051226;28;20029;-58
2022/12/18 12:11:34;;;;;;;14.45;8.15;;;;;;;;;;5050256;28;20051;-57
2022/12/18 12:14:37;;;;;;;15.07;8.45;;;;;;;;;;5051173;28;20048;-58
2022/12/18 12:17:25;;;;;;;16.98;8.55;;;;;;;;;;5054283;28;20033;-56
2022/12/18 12:20:02;;;;;;;13.82;7.68;;;;;;;;;;5054122;28;20036;-56
2022/12/18 12:22:48;;;;;;;15.95;8.25;;;;;;;;;;5053063;28;20131;-57
2022/12/18 12:25:21;;;;;;;15.48;7.95;;;;;;;;;;5054895;28;20032;-54
2022/12/18 12:27:52;;;;;;;17.23;8.88;;;;;;;;;;5054152;28;20036;-59
2022/12/18 12:30:30;;;;;;;14.25;7.88;;;;;;;;;;5055093;28;20039;-57
2022/12/18 12:32:56;;;;;;;15.45;7.63;;;;;;;;;;5052217;28;20354;-57
2022/12/18 12:35:33;;;;;;;13.38;7.53;;;;;;;;;;5054528;28;20040;-56
2022/12/18 12:38:11;;;;;;;15.35;7.63;;;;;;;;;;5052472;28;20462;-54
2022/12/18 12:41:01;;;;;;;17.35;8.43;;;;;;;;;;5054491;28;20059;-56
2022/12/18 12:43:39;;;;;;;20.02;9.45;;;;;;;;;;5037442;28;20042;-57
2022/12/18 12:46:15;;;;;;;17.10;9.10;;;;;;;;;;5033520;28;20128;-57
2022/12/18 12:48:43;;;;;;;14.52;7.68;;;;;;;;;;5053609;28;20026;-55
2022/12/18 12:51:11;;;;;;;15.30;8.57;;;;;;;;;;5053454;28;20025;-58
2022/12/18 12:53:38;;;;;;;15.98;9.43;;;;;;;;;;5053968;28;20089;-55
2022/12/18 12:56:05;;;;;;;17.58;10.07;;;;;;;;;;5053231;28;20061;-56
2022/12/18 12:58:40;;;;;;;21.08;10.20;;;;;;;;;;5052047;28;20040;-55
2022/12/18 13:01:11;;;;;;;18.88;8.80;;;;;;;;;;5052054;28;20086;-56
2022/12/18 13:03:42;;;;;;;17.75;9.45;;;;;;;;;;5053877;28;20107;-58
2022/12/18 13:06:27;;;;;;;14.57;8.73;;;;;;;;;;5053097;28;20025;-59
2022/12/18 13:08:58;;;;;;;16.95;8.43;;;;;;;;;;5052850;28;20037;-57
2022/12/18 13:14:28;;;;;;;14.88;8.15;;;;;;;;;;5052099;28;20295;-55
2022/12/18 13:17:25;;;;;;;18.05;9.23;;;;;;;;;;5050590;28;20070;-53
2022/12/18 13:19:51;;;;;;;16.67;8.48;;;;;;;;;;5051120;28;20032;-60
2022/12/18 13:22:33;;;;;;;15.68;8.70;;;;;;;;;;5053294;28;20460;-55
2022/12/18 13:24:59;;;;;;;;;;;;;;;;;;5051740;28;20120;-56
2022/12/18 13:27:42;;;;;;;16.20;8.50;;;;;;;;;;5053566;28;19982;-57
2022/12/18 13:30:29;;;;;;;14.80;8.43;;;;;;;;;;5050338;28;20688;-57
2022/12/18 13:33:13;;;;;;;18.15;9.30;;;;;;;;;;5051429;28;20033;-56
2022/12/18 13:36:12;;;;;;;17.30;9.10;;;;;;;;;;5052274;28;20031;-57
2022/12/18 13:38:39;;;;;;;16.08;9.38;;;;;;;;;;5051507;28;20048;-56
2022/12/18 13:41:17;;;;;;;15.73;8.63;;;;;;;;;;5052105;28;20044;-57
2022/12/18 13:43:51;;;;;;;16.38;9.10;;;;;;;;;;5048893;28;20475;-54
2022/12/18 13:46:26;;;;;;;16.38;9.65;;;;;;;;;;5033381;28;20079;-55
2022/12/18 13:49:41;;;;;;;29.23;13.13;;;;;;;;;;5041856;28;20025;-61
2022/12/18 13:52:22;;;;;;;25.00;11.95;;;;;;;;;;5046197;28;20366;-54
2022/12/18 13:54:51;;;;;;;;;;;;;;;;;;5053374;28;20031;-57
2022/12/18 13:57:32;;;;;;;20.73;9.93;;;;;;;;;;5049509;28;20389;-55
2022/12/18 14:00:16;;;;;;;16.67;9.40;;;;;;;;;;5046692;28;20154;-58
2022/12/18 14:02:44;;;;;;;17.92;9.10;;;;;;;;;;5053178;28;20036;-56
2022/12/18 14:05:24;;;;;;;17.83;9.07;;;;;;;;;;5052595;28;20345;-57
2022/12/18 14:07:50;;;;;;;16.95;8.93;;;;;;;;;;5049870;28;20029;-59
2022/12/18 14:10:16;;;;;;;18.52;10.13;;;;;;;;;;5051255;28;20146;-58
2022/12/18 14:12:58;;;;;;;17.25;9.23;;;;;;;;;;5045437;28;20043;-56
2022/12/18 14:15:26;;;;;;;18.52;9.70;;;;;;;;;;5052910;28;20029;-56
2022/12/18 14:18:01;;;;;;;18.70;10.35;;;;;;;;;;5049553;28;20056;-61
2022/12/18 14:20:32;;;;;;;18.90;10.05;;;;;;;;;;5051514;28;20408;-58
2022/12/18 14:22:58;;;;;;;;;;;;;;;;;;5052371;28;20037;-57
2022/12/18 14:25:26;;;;;;;17.52;9.32;;;;;;;;;;5052770;28;19909;-57
2022/12/18 14:28:01;;;;;;;15.30;8.82;;;;;;;;;;5050154;28;20039;-62
2022/12/18 14:30:32;;;;;;;15.98;8.85;;;;;;;;;;5050062;28;20107;-56
2022/12/18 14:33:12;;;;;;;20.35;9.20;;;;;;;;;;5048348;28;20029;-58
2022/12/18 14:35:40;;;;;;;16.40;9.20;;;;;;;;;;5050880;28;20130;-61
2022/12/18 14:38:29;;;;;;;18.42;9.25;;;;;;;;;;5047673;28;20385;-56
2022/12/18 14:41:14;;;;;;;17.73;9.43;;;;;;;;;;5027507;28;20075;-59
2022/12/18 14:43:42;;;;;;;19.20;9.93;;;;;;;;;;5031459;28;20032;-57
2022/12/18 14:46:33;;;;;;;18.77;9.70;;;;;;;;;;5050166;28;20469;-58
2022/12/18 14:49:01;;;;;;;19.83;9.80;;;;;;;;;;5045245;28;20044;-55
2022/12/18 14:51:29;;;;;;;19.63;10.05;;;;;;;;;;5051825;28;20032;-54
2022/12/18 14:53:58;;;;;;;20.52;10.60;;;;;;;;;;5046129;28;20035;-59